sensor_id;sensor_type;location;lat;lon;timestamp;pressure;altitude;pressure_sealevel;temperature;humidity
54329;BME280;40710;51.120;13.136;2024-03-08T00:00:21;99996.25;;;3.57;59.83
54329;BME280;40710;51.120;13.136;2024-03-08T00:02:46;100001.50;;;3.56;60.14
54329;BME280;40710;51.120;13.136;2024-03-08T00:05:13;100001.38;;;3.62;59.94
54329;BME280;40710;51.120;13.136;2024-03-08T00:07:39;99994.69;;;3.47;60.20
54329;BME280;40710;51.120;13.136;2024-03-08T00:10:14;99984.78;;;3.72;59.24
54329;BME280;40710;51.120;13.136;2024-03-08T00:12:40;99983.19;;;3.62;60.02
54329;BME280;40710;51.120;13.136;2024-03-08T00:15:06;99983.53;;;3.96;58.81
54329;BME280;40710;51.120;13.136;2024-03-08T00:17:31;99988.44;;;3.59;59.79
54329;BME280;40710;51.120;13.136;2024-03-08T00:19:55;99990.00;;;3.71;59.65
54329;BME280;40710;51.120;13.136;2024-03-08T00:22:20;99980.59;;;3.62;59.41
54329;BME280;40710;51.120;13.136;2024-03-08T00:24:46;99983.34;;;3.53;59.85
54329;BME280;40710;51.120;13.136;2024-03-08T00:27:11;99991.13;;;3.54;61.18
54329;BME280;40710;51.120;13.136;2024-03-08T00:29:35;99987.75;;;3.48;60.74
54329;BME280;40710;51.120;13.136;2024-03-08T00:32:02;99987.97;;;3.31;61.52
54329;BME280;40710;51.120;13.136;2024-03-08T00:34:27;99982.78;;;3.28;61.81
54329;BME280;40710;51.120;13.136;2024-03-08T00:36:52;99978.16;;;3.51;60.88
54329;BME280;40710;51.120;13.136;2024-03-08T00:39:16;99974.91;;;3.37;61.09
54329;BME280;40710;51.120;13.136;2024-03-08T00:41:41;99972.84;;;3.57;60.28
54329;BME280;40710;51.120;13.136;2024-03-08T00:44:06;99975.75;;;3.39;61.04
54329;BME280;40710;51.120;13.136;2024-03-08T00:46:30;99974.03;;;3.94;60.05
54329;BME280;40710;51.120;13.136;2024-03-08T00:48:56;99969.78;;;3.90;58.97
54329;BME280;40710;51.120;13.136;2024-03-08T00:51:21;99952.84;;;4.64;56.98
54329;BME280;40710;51.120;13.136;2024-03-08T00:53:45;99959.66;;;4.24;57.49
54329;BME280;40710;51.120;13.136;2024-03-08T00:56:11;99965.28;;;4.00;57.68
54329;BME280;40710;51.120;13.136;2024-03-08T00:58:38;99958.19;;;4.58;57.46
54329;BME280;40710;51.120;13.136;2024-03-08T01:01:03;99951.00;;;4.70;57.04
54329;BME280;40710;51.120;13.136;2024-03-08T01:03:29;99949.28;;;4.69;56.21
54329;BME280;40710;51.120;13.136;2024-03-08T01:05:56;99955.59;;;4.58;57.05
54329;BME280;40710;51.120;13.136;2024-03-08T01:08:20;99952.53;;;4.35;56.99
54329;BME280;40710;51.120;13.136;2024-03-08T01:10:45;99954.31;;;4.32;57.32
54329;BME280;40710;51.120;13.136;2024-03-08T01:13:09;99951.13;;;4.18;58.06
54329;BME280;40710;51.120;13.136;2024-03-08T01:15:34;99951.56;;;3.90;58.99
54329;BME280;40710;51.120;13.136;2024-03-08T01:17:58;99951.97;;;4.18;58.13
54329;BME280;40710;51.120;13.136;2024-03-08T01:20:25;99942.28;;;4.28;58.20
54329;BME280;40710;51.120;13.136;2024-03-08T01:22:49;99941.34;;;4.30;57.60
54329;BME280;40710;51.120;13.136;2024-03-08T01:25:14;99936.16;;;4.29;57.82
54329;BME280;40710;51.120;13.136;2024-03-08T01:27:38;99932.34;;;4.00;58.55
54329;BME280;40710;51.120;13.136;2024-03-08T01:30:04;99934.34;;;3.84;59.30
54329;BME280;40710;51.120;13.136;2024-03-08T01:32:28;99935.63;;;3.57;59.50
54329;BME280;40710;51.120;13.136;2024-03-08T01:34:53;99939.19;;;3.51;60.05
54329;BME280;40710;51.120;13.136;2024-03-08T01:37:17;99938.50;;;3.38;59.91
54329;BME280;40710;51.120;13.136;2024-03-08T01:39:42;99937.63;;;3.39;60.89
54329;BME280;40710;51.120;13.136;2024-03-08T01:42:07;99932.38;;;3.44;60.46
54329;BME280;40710;51.120;13.136;2024-03-08T01:44:31;99932.53;;;3.33;60.86
54329;BME280;40710;51.120;13.136;2024-03-08T01:46:56;99919.47;;;3.91;59.25
54329;BME280;40710;51.120;13.136;2024-03-08T01:49:21;99920.38;;;3.90;58.98
54329;BME280;40710;51.120;13.136;2024-03-08T01:51:48;99922.19;;;3.29;59.90
54329;BME280;40710;51.120;13.136;2024-03-08T01:54:14;99924.56;;;3.46;60.59
54329;BME280;40710;51.120;13.136;2024-03-08T01:56:39;99918.81;;;3.78;59.39
54329;BME280;40710;51.120;13.136;2024-03-08T01:59:05;99917.03;;;3.82;59.61
54329;BME280;40710;51.120;13.136;2024-03-08T02:01:32;99920.34;;;3.37;59.92
54329;BME280;40710;51.120;13.136;2024-03-08T02:03:57;99916.66;;;3.52;60.17
54329;BME280;40710;51.120;13.136;2024-03-08T02:06:22;99915.66;;;3.59;59.79
54329;BME280;40710;51.120;13.136;2024-03-08T02:08:47;99899.94;;;3.68;59.42
54329;BME280;40710;51.120;13.136;2024-03-08T02:11:12;99902.69;;;3.57;59.34
54329;BME280;40710;51.120;13.136;2024-03-08T02:13:37;99900.53;;;3.84;59.87
54329;BME280;40710;51.120;13.136;2024-03-08T02:16:02;99911.00;;;3.79;59.31
54329;BME280;40710;51.120;13.136;2024-03-08T02:18:29;99889.09;;;3.94;58.77
54329;BME280;40710;51.120;13.136;2024-03-08T02:21:03;99897.72;;;3.96;58.73
54329;BME280;40710;51.120;13.136;2024-03-08T02:23:29;99901.56;;;3.74;59.70
54329;BME280;40710;51.120;13.136;2024-03-08T02:25:55;99899.81;;;3.76;59.69
54329;BME280;40710;51.120;13.136;2024-03-08T02:28:20;99898.16;;;3.72;59.79
54329;BME280;40710;51.120;13.136;2024-03-08T02:30:49;99889.56;;;3.67;60.17
54329;BME280;40710;51.120;13.136;2024-03-08T02:33:20;99890.66;;;3.52;59.95
54329;BME280;40710;51.120;13.136;2024-03-08T02:35:45;99884.88;;;3.87;59.28
54329;BME280;40710;51.120;13.136;2024-03-08T02:38:10;99902.13;;;2.75;61.91
54329;BME280;40710;51.120;13.136;2024-03-08T02:40:34;99901.25;;;3.38;61.28
54329;BME280;40710;51.120;13.136;2024-03-08T02:42:59;99882.19;;;3.93;59.15
54329;BME280;40710;51.120;13.136;2024-03-08T02:45:24;99892.59;;;3.39;60.63
54329;BME280;40710;51.120;13.136;2024-03-08T02:47:48;99889.59;;;3.65;59.63
54329;BME280;40710;51.120;13.136;2024-03-08T02:50:16;99895.53;;;3.16;60.75
54329;BME280;40710;51.120;13.136;2024-03-08T02:52:40;99885.94;;;3.77;59.94
54329;BME280;40710;51.120;13.136;2024-03-08T02:55:06;99896.69;;;2.95;61.52
54329;BME280;40710;51.120;13.136;2024-03-08T02:57:31;99891.47;;;3.54;60.80
54329;BME280;40710;51.120;13.136;2024-03-08T02:59:56;99884.53;;;2.97;61.22
54329;BME280;40710;51.120;13.136;2024-03-08T03:02:20;99889.91;;;2.84;62.23
54329;BME280;40710;51.120;13.136;2024-03-08T03:04:47;99880.50;;;2.76;61.88
54329;BME280;40710;51.120;13.136;2024-03-08T03:07:13;99883.38;;;3.19;61.85
54329;BME280;40710;51.120;13.136;2024-03-08T03:09:37;99873.38;;;2.90;62.21
54329;BME280;40710;51.120;13.136;2024-03-08T03:12:02;99879.38;;;2.94;61.90
54329;BME280;40710;51.120;13.136;2024-03-08T03:14:26;99883.97;;;2.73;62.73
54329;BME280;40710;51.120;13.136;2024-03-08T03:16:51;99876.38;;;3.25;62.17
54329;BME280;40710;51.120;13.136;2024-03-08T03:19:16;99872.38;;;3.02;61.08
54329;BME280;40710;51.120;13.136;2024-03-08T03:21:40;99878.72;;;2.81;62.23
54329;BME280;40710;51.120;13.136;2024-03-08T03:24:07;99874.59;;;3.28;62.00
54329;BME280;40710;51.120;13.136;2024-03-08T03:26:34;99873.69;;;2.69;62.58
54329;BME280;40710;51.120;13.136;2024-03-08T03:28:58;99873.69;;;2.69;62.50
54329;BME280;40710;51.120;13.136;2024-03-08T03:31:25;99865.16;;;3.21;61.38
54329;BME280;40710;51.120;13.136;2024-03-08T03:33:49;99871.63;;;2.91;62.08
54329;BME280;40710;51.120;13.136;2024-03-08T03:36:16;99869.31;;;2.71;62.37
54329;BME280;40710;51.120;13.136;2024-03-08T03:38:40;99871.66;;;2.89;62.07
54329;BME280;40710;51.120;13.136;2024-03-08T03:41:05;99878.91;;;2.64;62.59
54329;BME280;40710;51.120;13.136;2024-03-08T03:43:34;99862.78;;;3.06;61.55
54329;BME280;40710;51.120;13.136;2024-03-08T03:45:59;99877.44;;;2.41;62.79
54329;BME280;40710;51.120;13.136;2024-03-08T03:48:23;99869.56;;;2.51;62.28
54329;BME280;40710;51.120;13.136;2024-03-08T03:50:48;99872.63;;;2.80;62.32
54329;BME280;40710;51.120;13.136;2024-03-08T03:53:14;99871.59;;;2.95;61.97
54329;BME280;40710;51.120;13.136;2024-03-08T03:55:39;99872.19;;;3.14;61.07
54329;BME280;40710;51.120;13.136;2024-03-08T03:58:03;99866.78;;;3.30;60.49
54329;BME280;40710;51.120;13.136;2024-03-08T04:00:28;99864.78;;;3.46;60.28
54329;BME280;40710;51.120;13.136;2024-03-08T04:02:53;99856.25;;;3.37;60.47
54329;BME280;40710;51.120;13.136;2024-03-08T04:05:17;99850.63;;;3.64;59.52
54329;BME280;40710;51.120;13.136;2024-03-08T04:07:42;99853.44;;;3.50;59.34
54329;BME280;40710;51.120;13.136;2024-03-08T04:10:08;99861.97;;;3.02;61.31
54329;BME280;40710;51.120;13.136;2024-03-08T04:12:33;99862.06;;;2.96;61.80
54329;BME280;40710;51.120;13.136;2024-03-08T04:14:58;99860.19;;;3.07;61.12
54329;BME280;40710;51.120;13.136;2024-03-08T04:17:23;99863.84;;;2.91;61.38
54329;BME280;40710;51.120;13.136;2024-03-08T04:19:48;99868.84;;;2.38;63.18
54329;BME280;40710;51.120;13.136;2024-03-08T04:22:13;99857.28;;;2.65;62.12
54329;BME280;40710;51.120;13.136;2024-03-08T04:24:37;99853.78;;;2.66;62.63
54329;BME280;40710;51.120;13.136;2024-03-08T04:27:03;99848.03;;;3.08;61.36
54329;BME280;40710;51.120;13.136;2024-03-08T04:29:28;99852.00;;;2.71;60.99
54329;BME280;40710;51.120;13.136;2024-03-08T04:31:53;99849.06;;;2.27;62.75
54329;BME280;40710;51.120;13.136;2024-03-08T04:34:21;99849.06;;;2.29;63.13
54329;BME280;40710;51.120;13.136;2024-03-08T04:36:45;99836.72;;;2.50;63.13
54329;BME280;40710;51.120;13.136;2024-03-08T04:39:11;99828.72;;;3.26;61.31
54329;BME280;40710;51.120;13.136;2024-03-08T04:41:37;99818.22;;;3.33;60.47
54329;BME280;40710;51.120;13.136;2024-03-08T04:44:02;99833.78;;;2.77;61.89
54329;BME280;40710;51.120;13.136;2024-03-08T04:46:27;99824.66;;;3.09;61.33
54329;BME280;40710;51.120;13.136;2024-03-08T04:48:52;99828.94;;;3.12;60.59
54329;BME280;40710;51.120;13.136;2024-03-08T04:51:17;99839.28;;;2.54;62.09
54329;BME280;40710;51.120;13.136;2024-03-08T04:53:43;99833.94;;;2.65;62.40
54329;BME280;40710;51.120;13.136;2024-03-08T04:56:08;99835.66;;;2.64;61.74
54329;BME280;40710;51.120;13.136;2024-03-08T04:58:35;99835.59;;;2.71;61.90
54329;BME280;40710;51.120;13.136;2024-03-08T05:01:00;99843.31;;;2.02;63.09
54329;BME280;40710;51.120;13.136;2024-03-08T05:03:25;99847.09;;;2.50;63.75
54329;BME280;40710;51.120;13.136;2024-03-08T05:05:50;99837.00;;;2.93;62.48
54329;BME280;40710;51.120;13.136;2024-03-08T05:08:14;99835.81;;;2.51;62.51
54329;BME280;40710;51.120;13.136;2024-03-08T05:10:39;99829.94;;;2.39;64.83
54329;BME280;40710;51.120;13.136;2024-03-08T05:13:04;99831.25;;;2.70;64.04
54329;BME280;40710;51.120;13.136;2024-03-08T05:15:28;99832.47;;;2.44;64.32
54329;BME280;40710;51.120;13.136;2024-03-08T05:17:53;99825.81;;;2.90;63.79
54329;BME280;40710;51.120;13.136;2024-03-08T05:20:17;99830.72;;;2.46;64.64
54329;BME280;40710;51.120;13.136;2024-03-08T05:22:43;99842.47;;;2.00;66.17
54329;BME280;40710;51.120;13.136;2024-03-08T05:25:08;99831.88;;;2.19;65.71
54329;BME280;40710;51.120;13.136;2024-03-08T05:27:33;99827.16;;;2.55;64.88
54329;BME280;40710;51.120;13.136;2024-03-08T05:29:58;99817.78;;;2.41;65.42
54329;BME280;40710;51.120;13.136;2024-03-08T05:32:22;99803.66;;;3.25;63.07
54329;BME280;40710;51.120;13.136;2024-03-08T05:34:47;99801.84;;;3.28;62.57
54329;BME280;40710;51.120;13.136;2024-03-08T05:37:11;99808.69;;;2.76;62.77
54329;BME280;40710;51.120;13.136;2024-03-08T05:39:36;99809.84;;;3.14;63.14
54329;BME280;40710;51.120;13.136;2024-03-08T05:42:00;99796.25;;;3.53;61.59
54329;BME280;40710;51.120;13.136;2024-03-08T05:44:25;99803.59;;;2.70;63.07
54329;BME280;40710;51.120;13.136;2024-03-08T05:46:53;99810.13;;;2.96;63.25
54329;BME280;40710;51.120;13.136;2024-03-08T05:49:17;99799.16;;;3.33;61.86
54329;BME280;40710;51.120;13.136;2024-03-08T05:51:42;99798.22;;;2.82;62.11
54329;BME280;40710;51.120;13.136;2024-03-08T05:54:09;99801.03;;;3.25;61.78
54329;BME280;40710;51.120;13.136;2024-03-08T05:56:38;99795.53;;;3.43;61.65
54329;BME280;40710;51.120;13.136;2024-03-08T05:59:03;99804.03;;;3.00;62.65
54329;BME280;40710;51.120;13.136;2024-03-08T06:01:29;99801.53;;;2.91;62.49
54329;BME280;40710;51.120;13.136;2024-03-08T06:03:54;99798.56;;;3.68;61.22
54329;BME280;40710;51.120;13.136;2024-03-08T06:06:24;99796.84;;;3.67;61.11
54329;BME280;40710;51.120;13.136;2024-03-08T06:08:50;99799.13;;;3.36;61.03
54329;BME280;40710;51.120;13.136;2024-03-08T06:11:16;99804.16;;;3.45;61.76
54329;BME280;40710;51.120;13.136;2024-03-08T06:13:42;99805.94;;;3.41;61.08
54329;BME280;40710;51.120;13.136;2024-03-08T06:16:06;99801.47;;;3.50;61.23
54329;BME280;40710;51.120;13.136;2024-03-08T06:18:32;99810.53;;;3.26;61.95
54329;BME280;40710;51.120;13.136;2024-03-08T06:20:57;99808.84;;;3.23;62.66
54329;BME280;40710;51.120;13.136;2024-03-08T06:23:22;99799.63;;;3.58;61.02
54329;BME280;40710;51.120;13.136;2024-03-08T06:25:46;99802.53;;;3.88;60.28
54329;BME280;40710;51.120;13.136;2024-03-08T06:28:11;99795.16;;;4.11;59.81
54329;BME280;40710;51.120;13.136;2024-03-08T06:30:35;99800.94;;;3.81;60.08
54329;BME280;40710;51.120;13.136;2024-03-08T06:33:00;99793.03;;;4.30;59.45
54329;BME280;40710;51.120;13.136;2024-03-08T06:35:25;99798.66;;;4.10;59.63
54329;BME280;40710;51.120;13.136;2024-03-08T06:37:49;99801.06;;;3.73;60.68
54329;BME280;40710;51.120;13.136;2024-03-08T06:40:14;99781.50;;;4.44;59.12
54329;BME280;40710;51.120;13.136;2024-03-08T06:42:39;99789.44;;;3.92;58.80
54329;BME280;40710;51.120;13.136;2024-03-08T06:45:04;99787.59;;;3.97;59.99
54329;BME280;40710;51.120;13.136;2024-03-08T06:47:29;99775.94;;;4.98;58.45
54329;BME280;40710;51.120;13.136;2024-03-08T06:49:54;99774.56;;;4.43;58.58
54329;BME280;40710;51.120;13.136;2024-03-08T06:52:18;99783.41;;;4.34;59.74
54329;BME280;40710;51.120;13.136;2024-03-08T06:54:43;99779.81;;;4.40;59.23
54329;BME280;40710;51.120;13.136;2024-03-08T06:57:07;99781.78;;;4.70;58.35
54329;BME280;40710;51.120;13.136;2024-03-08T06:59:32;99775.69;;;5.09;57.98
54329;BME280;40710;51.120;13.136;2024-03-08T07:01:57;99778.31;;;5.07;57.82
54329;BME280;40710;51.120;13.136;2024-03-08T07:04:23;99778.31;;;5.07;58.00
54329;BME280;40710;51.120;13.136;2024-03-08T07:06:51;99762.47;;;5.84;56.16
54329;BME280;40710;51.120;13.136;2024-03-08T07:09:16;99752.97;;;6.14;54.62
54329;BME280;40710;51.120;13.136;2024-03-08T07:11:43;99746.22;;;7.20;52.56
54329;BME280;40710;51.120;13.136;2024-03-08T07:14:08;99724.06;;;10.57;45.67
54329;BME280;40710;51.120;13.136;2024-03-08T07:16:33;99702.13;;;13.23;39.14
54329;BME280;40710;51.120;13.136;2024-03-08T07:18:58;99700.56;;;13.66;37.60
54329;BME280;40710;51.120;13.136;2024-03-08T07:21:23;99703.16;;;13.37;37.50
54329;BME280;40710;51.120;13.136;2024-03-08T07:23:49;99728.78;;;12.25;39.30
54329;BME280;40710;51.120;13.136;2024-03-08T07:26:43;99700.66;;;13.93;36.20
54329;BME280;40710;51.120;13.136;2024-03-08T07:29:08;99712.97;;;13.49;37.07
54329;BME280;40710;51.120;13.136;2024-03-08T07:31:32;99717.13;;;13.23;37.13
54329;BME280;40710;51.120;13.136;2024-03-08T07:34:06;99750.22;;;10.01;43.40
54329;BME280;40710;51.120;13.136;2024-03-08T07:36:31;99769.75;;;8.68;46.66
54329;BME280;40710;51.120;13.136;2024-03-08T07:38:56;99745.34;;;9.53;45.94
54329;BME280;40710;51.120;13.136;2024-03-08T07:41:21;99740.50;;;10.03;44.32
54329;BME280;40710;51.120;13.136;2024-03-08T07:43:46;99735.72;;;10.32;43.98
54329;BME280;40710;51.120;13.136;2024-03-08T07:46:11;99728.72;;;11.06;42.49
54329;BME280;40710;51.120;13.136;2024-03-08T07:48:37;99713.44;;;12.00;40.29
54329;BME280;40710;51.120;13.136;2024-03-08T07:51:02;99684.84;;;14.76;35.64
54329;BME280;40710;51.120;13.136;2024-03-08T07:53:27;99680.38;;;15.95;33.70
54329;BME280;40710;51.120;13.136;2024-03-08T07:55:52;99686.28;;;16.86;31.63
54329;BME280;40710;51.120;13.136;2024-03-08T07:58:17;99682.38;;;15.66;32.85
54329;BME280;40710;51.120;13.136;2024-03-08T08:00:41;99682.03;;;16.09;32.35
54329;BME280;40710;51.120;13.136;2024-03-08T08:03:07;99682.91;;;15.97;32.56
54329;BME280;40710;51.120;13.136;2024-03-08T08:05:33;99679.19;;;16.49;31.80
54329;BME280;40710;51.120;13.136;2024-03-08T08:07:59;99664.91;;;17.11;30.93
54329;BME280;40710;51.120;13.136;2024-03-08T08:10:24;99675.22;;;16.79;32.09
54329;BME280;40710;51.120;13.136;2024-03-08T08:12:49;99665.44;;;17.39;30.58
54329;BME280;40710;51.120;13.136;2024-03-08T08:15:14;99668.34;;;17.36;30.60
54329;BME280;40710;51.120;13.136;2024-03-08T08:17:39;99664.34;;;18.55;29.26
54329;BME280;40710;51.120;13.136;2024-03-08T08:20:04;99659.63;;;18.58;29.09
54329;BME280;40710;51.120;13.136;2024-03-08T08:22:29;99662.63;;;17.99;29.71
54329;BME280;40710;51.120;13.136;2024-03-08T08:24:54;99661.88;;;18.85;28.52
54329;BME280;40710;51.120;13.136;2024-03-08T08:27:18;99654.44;;;19.73;27.79
54329;BME280;40710;51.120;13.136;2024-03-08T08:29:43;99682.66;;;16.62;32.43
54329;BME280;40710;51.120;13.136;2024-03-08T08:32:10;99715.00;;;12.20;40.32
54329;BME280;40710;51.120;13.136;2024-03-08T08:34:35;99666.94;;;17.77;32.00
54329;BME280;40710;51.120;13.136;2024-03-08T08:36:59;99656.72;;;18.61;29.94
54329;BME280;40710;51.120;13.136;2024-03-08T08:39:24;99655.44;;;19.51;29.58
54329;BME280;40710;51.120;13.136;2024-03-08T08:41:50;99649.75;;;20.77;26.98
54329;BME280;40710;51.120;13.136;2024-03-08T08:44:14;99655.00;;;19.67;28.35
54329;BME280;40710;51.120;13.136;2024-03-08T08:46:39;99643.94;;;21.02;28.68
54329;BME280;40710;51.120;13.136;2024-03-08T08:49:05;99651.03;;;20.23;28.48
54329;BME280;40710;51.120;13.136;2024-03-08T08:51:30;99634.19;;;21.87;25.95
54329;BME280;40710;51.120;13.136;2024-03-08T08:53:57;99641.97;;;21.23;26.93
54329;BME280;40710;51.120;13.136;2024-03-08T08:56:22;99631.25;;;21.90;26.09
54329;BME280;40710;51.120;13.136;2024-03-08T08:58:47;99630.16;;;21.73;26.22
54329;BME280;40710;51.120;13.136;2024-03-08T09:01:12;99626.53;;;21.74;26.01
54329;BME280;40710;51.120;13.136;2024-03-08T09:03:37;99626.03;;;21.88;26.29
54329;BME280;40710;51.120;13.136;2024-03-08T09:06:01;99609.88;;;22.90;25.29
54329;BME280;40710;51.120;13.136;2024-03-08T09:08:26;99628.19;;;21.75;26.60
54329;BME280;40710;51.120;13.136;2024-03-08T09:10:51;99614.63;;;22.78;25.16
54329;BME280;40710;51.120;13.136;2024-03-08T09:13:16;99628.06;;;21.20;27.25
54329;BME280;40710;51.120;13.136;2024-03-08T09:15:41;99621.19;;;22.30;25.98
54329;BME280;40710;51.120;13.136;2024-03-08T09:18:06;99616.22;;;22.89;24.47
54329;BME280;40710;51.120;13.136;2024-03-08T09:20:31;99611.25;;;23.38;24.54
54329;BME280;40710;51.120;13.136;2024-03-08T09:22:56;99618.13;;;22.96;24.83
54329;BME280;40710;51.120;13.136;2024-03-08T09:25:20;99615.47;;;21.87;25.43
54329;BME280;40710;51.120;13.136;2024-03-08T09:27:45;99608.84;;;23.27;24.35
54329;BME280;40710;51.120;13.136;2024-03-08T09:30:11;99608.63;;;23.46;24.12
54329;BME280;40710;51.120;13.136;2024-03-08T09:32:37;99605.22;;;24.56;22.71
54329;BME280;40710;51.120;13.136;2024-03-08T09:35:02;99604.09;;;24.07;23.77
54329;BME280;40710;51.120;13.136;2024-03-08T09:37:27;99596.66;;;25.09;23.52
54329;BME280;40710;51.120;13.136;2024-03-08T09:39:51;99591.19;;;24.27;23.39
54329;BME280;40710;51.120;13.136;2024-03-08T09:42:16;99599.84;;;24.05;23.90
54329;BME280;40710;51.120;13.136;2024-03-08T09:44:47;99579.63;;;26.29;21.34
54329;BME280;40710;51.120;13.136;2024-03-08T09:47:14;99585.91;;;25.09;23.00
54329;BME280;40710;51.120;13.136;2024-03-08T09:49:39;99583.22;;;24.85;23.07
54329;BME280;40710;51.120;13.136;2024-03-08T09:52:04;99559.41;;;26.33;21.74
54329;BME280;40710;51.120;13.136;2024-03-08T09:54:29;99569.75;;;26.21;22.38
54329;BME280;40710;51.120;13.136;2024-03-08T09:56:54;99569.09;;;24.99;22.79
54329;BME280;40710;51.120;13.136;2024-03-08T09:59:19;99574.66;;;23.97;23.73
54329;BME280;40710;51.120;13.136;2024-03-08T10:01:52;99572.13;;;24.71;23.63
54329;BME280;40710;51.120;13.136;2024-03-08T10:04:16;99569.47;;;24.63;23.07
54329;BME280;40710;51.120;13.136;2024-03-08T10:06:41;99571.75;;;21.96;25.72
54329;BME280;40710;51.120;13.136;2024-03-08T10:09:06;99588.56;;;20.84;29.15
54329;BME280;40710;51.120;13.136;2024-03-08T10:11:32;99553.69;;;23.58;24.10
54329;BME280;40710;51.120;13.136;2024-03-08T10:13:57;99543.88;;;25.17;22.85
54329;BME280;40710;51.120;13.136;2024-03-08T10:16:21;99555.81;;;24.32;24.14
54329;BME280;40710;51.120;13.136;2024-03-08T10:18:48;99534.91;;;26.20;22.09
54329;BME280;40710;51.120;13.136;2024-03-08T10:21:13;99539.41;;;25.57;22.61
54329;BME280;40710;51.120;13.136;2024-03-08T10:23:39;99537.03;;;24.65;22.96
54329;BME280;40710;51.120;13.136;2024-03-08T10:26:12;99544.69;;;22.45;24.71
54329;BME280;40710;51.120;13.136;2024-03-08T10:28:41;99544.66;;;23.25;24.32
54329;BME280;40710;51.120;13.136;2024-03-08T10:31:06;99521.72;;;26.02;22.31
54329;BME280;40710;51.120;13.136;2024-03-08T10:33:30;99521.88;;;25.05;22.58
54329;BME280;40710;51.120;13.136;2024-03-08T10:35:55;99517.44;;;25.76;21.30
54329;BME280;40710;51.120;13.136;2024-03-08T10:38:22;99521.53;;;24.18;22.87
54329;BME280;40710;51.120;13.136;2024-03-08T10:40:48;99509.19;;;25.38;22.40
54329;BME280;40710;51.120;13.136;2024-03-08T10:43:23;99514.88;;;23.10;24.09
54329;BME280;40710;51.120;13.136;2024-03-08T10:45:56;99516.25;;;23.49;23.99
54329;BME280;40710;51.120;13.136;2024-03-08T10:48:29;99532.97;;;22.28;25.24
54329;BME280;40710;51.120;13.136;2024-03-08T10:51:02;99528.22;;;22.22;25.37
54329;BME280;40710;51.120;13.136;2024-03-08T10:53:28;99531.72;;;21.49;25.60
54329;BME280;40710;51.120;13.136;2024-03-08T10:55:53;99506.63;;;24.72;23.17
54329;BME280;40710;51.120;13.136;2024-03-08T10:58:22;99502.78;;;25.47;22.79
54329;BME280;40710;51.120;13.136;2024-03-08T11:00:48;99508.44;;;24.31;22.90
54329;BME280;40710;51.120;13.136;2024-03-08T11:06:05;99536.38;;;19.61;28.37
54329;BME280;40710;51.120;13.136;2024-03-08T11:08:32;99531.00;;;19.82;28.97
54329;BME280;40710;51.120;13.136;2024-03-08T11:10:58;99543.50;;;18.25;30.42
54329;BME280;40710;51.120;13.136;2024-03-08T11:13:41;99532.47;;;17.63;32.46
54329;BME280;40710;51.120;13.136;2024-03-08T11:16:09;99530.97;;;18.48;30.57
54329;BME280;40710;51.120;13.136;2024-03-08T11:18:35;99538.91;;;17.61;32.56
54329;BME280;40710;51.120;13.136;2024-03-08T11:21:03;99522.69;;;17.98;31.86
54329;BME280;40710;51.120;13.136;2024-03-08T11:23:31;99511.44;;;18.80;30.37
54329;BME280;40710;51.120;13.136;2024-03-08T11:25:55;99507.72;;;18.71;31.07
54329;BME280;40710;51.120;13.136;2024-03-08T11:28:23;99492.25;;;19.78;29.63
54329;BME280;40710;51.120;13.136;2024-03-08T11:33:23;99504.81;;;18.21;30.81
54329;BME280;40710;51.120;13.136;2024-03-08T11:35:47;99497.34;;;18.47;30.70
54329;BME280;40710;51.120;13.136;2024-03-08T11:38:13;99484.06;;;19.60;29.11
54329;BME280;40710;51.120;13.136;2024-03-08T11:40:39;99470.13;;;20.27;27.69
54329;BME280;40710;51.120;13.136;2024-03-08T11:43:04;99473.91;;;20.14;27.68
54329;BME280;40710;51.120;13.136;2024-03-08T11:45:31;99466.72;;;21.48;26.94
54329;BME280;40710;51.120;13.136;2024-03-08T11:47:55;99458.34;;;23.03;25.36
54329;BME280;40710;51.120;13.136;2024-03-08T11:50:21;99466.72;;;21.76;25.96
54329;BME280;40710;51.120;13.136;2024-03-08T11:52:48;99454.75;;;22.60;25.42
54329;BME280;40710;51.120;13.136;2024-03-08T11:55:13;99428.44;;;25.46;22.89
54329;BME280;40710;51.120;13.136;2024-03-08T11:57:38;99433.69;;;25.40;22.34
54329;BME280;40710;51.120;13.136;2024-03-08T12:00:03;99430.66;;;24.95;22.54
54329;BME280;40710;51.120;13.136;2024-03-08T12:02:31;99425.53;;;24.20;23.85
54329;BME280;40710;51.120;13.136;2024-03-08T12:04:57;99411.00;;;26.35;22.30
54329;BME280;40710;51.120;13.136;2024-03-08T12:07:22;99420.41;;;23.75;24.03
54329;BME280;40710;51.120;13.136;2024-03-08T12:10:16;99427.03;;;23.30;24.53
54329;BME280;40710;51.120;13.136;2024-03-08T12:12:41;99431.00;;;22.03;25.82
54329;BME280;40710;51.120;13.136;2024-03-08T12:15:06;99440.63;;;19.89;27.70
54329;BME280;40710;51.120;13.136;2024-03-08T12:17:32;99453.56;;;18.19;31.48
54329;BME280;40710;51.120;13.136;2024-03-08T12:19:57;99449.50;;;17.71;31.64
54329;BME280;40710;51.120;13.136;2024-03-08T12:22:35;99450.97;;;16.73;33.58
54329;BME280;40710;51.120;13.136;2024-03-08T12:25:04;99438.28;;;18.00;31.59
54329;BME280;40710;51.120;13.136;2024-03-08T12:27:34;99432.59;;;17.61;31.45
54329;BME280;40710;51.120;13.136;2024-03-08T12:29:59;99431.81;;;17.81;32.03
54329;BME280;40710;51.120;13.136;2024-03-08T12:32:23;99426.72;;;17.89;32.81
54329;BME280;40710;51.120;13.136;2024-03-08T12:34:52;99421.03;;;17.50;32.78
54329;BME280;40710;51.120;13.136;2024-03-08T12:37:18;99419.00;;;18.19;32.16
54329;BME280;40710;51.120;13.136;2024-03-08T12:39:42;99415.47;;;18.81;31.86
54329;BME280;40710;51.120;13.136;2024-03-08T12:42:07;99412.41;;;18.02;31.81
54329;BME280;40710;51.120;13.136;2024-03-08T12:44:31;99411.78;;;18.51;31.43
54329;BME280;40710;51.120;13.136;2024-03-08T12:46:56;99416.94;;;17.35;33.23
54329;BME280;40710;51.120;13.136;2024-03-08T12:49:23;99401.69;;;18.97;32.18
54329;BME280;40710;51.120;13.136;2024-03-08T12:51:48;99401.13;;;17.88;32.01